Time;durP1;ratioP1;P1;durP2;ratioP2;P2;SDS_P1;SDS_P2;PMS_P1;PMS_P2;Temp;Humidity;BMP_temperature;BMP_pressure;BME280_temperature;BME280_humidity;BME280_pressure;Samples;Min_cycle;Max_cycle;Signal;HPM_P1;HPM_P2
2022/03/21 00:09:55;;;;;;;3.67;1.80;;;;;;;;;;20920332;28;20128;-62
2022/03/21 00:19:57;;;;;;;3.38;1.40;;;;;;;;;;20919938;28;20057;-59
2022/03/21 00:29:59;;;;;;;3.17;1.50;;;;;;;;;;20920462;28;20049;-63
2022/03/21 00:40:01;;;;;;;4.43;1.65;;;;;;;;;;20918913;28;20460;-57
2022/03/21 00:50:07;;;;;;;2.38;1.23;;;;;;;;;;20917935;28;20087;-63
2022/03/21 01:00:12;;;;;;;4.18;1.70;;;;;;;;;;20916466;28;20060;-59
2022/03/21 01:10:15;;;;;;;5.68;1.55;;;;;;;;;;20915711;28;20041;-62
2022/03/21 01:20:18;;;;;;;5.97;1.65;;;;;;;;;;20915334;28;20481;-63
2022/03/21 01:30:21;;;;;;;8.68;2.42;;;;;;;;;;20914725;28;20133;-62
2022/03/21 01:40:22;;;;;;;8.63;2.53;;;;;;;;;;20913328;28;20049;-56
2022/03/21 01:50:25;;;;;;;8.02;2.25;;;;;;;;;;20913058;28;20118;-61
2022/03/21 02:00:27;;;;;;;8.75;2.63;;;;;;;;;;20913728;28;20473;-60
2022/03/21 02:10:29;;;;;;;8.55;2.15;;;;;;;;;;20912505;28;20102;-57
2022/03/21 02:20:33;;;;;;;12.18;2.63;;;;;;;;;;20911636;28;20080;-59
2022/03/21 02:30:41;;;;;;;12.95;4.20;;;;;;;;;;20911978;28;20049;-63
2022/03/21 02:40:48;;;;;;;11.05;3.25;;;;;;;;;;20911206;28;20057;-58
2022/03/21 02:51:01;;;;;;;12.85;2.90;;;;;;;;;;20911362;28;20128;-62
2022/03/21 03:01:17;;;;;;;12.07;3.00;;;;;;;;;;20909443;28;20048;-61
2022/03/21 03:11:22;;;;;;;8.63;2.90;;;;;;;;;;20909698;28;20057;-60
2022/03/21 03:21:27;;;;;;;9.17;3.20;;;;;;;;;;20912072;28;20393;-61
2022/03/21 03:31:30;;;;;;;13.25;3.70;;;;;;;;;;20925562;28;20133;-60
2022/03/21 03:41:32;;;;;;;10.50;2.70;;;;;;;;;;20924050;28;20451;-58
2022/03/21 03:51:37;;;;;;;10.63;3.05;;;;;;;;;;20922403;28;20049;-58
2022/03/21 04:01:58;;;;;;;10.02;2.30;;;;;;;;;;20921510;28;20107;-56
2022/03/21 04:12:20;;;;;;;11.13;2.92;;;;;;;;;;20920591;28;20079;-58
2022/03/21 04:22:30;;;;;;;7.15;2.38;;;;;;;;;;20919763;28;20049;-56
2022/03/21 04:32:37;;;;;;;7.50;2.08;;;;;;;;;;20918122;28;20087;-61
2022/03/21 04:42:42;;;;;;;7.68;2.28;;;;;;;;;;20920002;28;20080;-61
2022/03/21 04:52:50;;;;;;;6.50;2.10;;;;;;;;;;20918330;28;20103;-59
2022/03/21 05:02:52;;;;;;;5.72;1.65;;;;;;;;;;20920298;28;20489;-56
2022/03/21 05:12:54;;;;;;;5.10;1.73;;;;;;;;;;20917386;28;20075;-56
2022/03/21 05:43:40;;;;;;;4.40;2.10;;;;;;;;;;20914233;28;20456;-57
2022/03/21 05:53:44;;;;;;;9.18;2.65;;;;;;;;;;20913471;28;20060;-56
2022/03/21 06:03:48;;;;;;;10.35;6.40;;;;;;;;;;20913118;28;20103;-57
2022/03/21 06:13:53;;;;;;;8.40;3.65;;;;;;;;;;20911894;28;20049;-56
2022/03/21 06:23:55;;;;;;;8.52;2.67;;;;;;;;;;20911714;28;20057;-57
2022/03/21 06:33:57;;;;;;;5.47;2.83;;;;;;;;;;20911574;28;20091;-55
2022/03/21 06:43:59;;;;;;;3.05;1.17;;;;;;;;;;20910326;28;20086;-55
2022/03/21 06:54:02;;;;;;;8.45;5.10;;;;;;;;;;20910057;28;20088;-55
2022/03/21 07:04:06;;;;;;;3.93;1.20;;;;;;;;;;20923872;28;20053;-55
2022/03/21 07:14:08;;;;;;;3.70;1.30;;;;;;;;;;20925023;28;20091;-56
2022/03/21 07:24:10;;;;;;;5.28;2.70;;;;;;;;;;20924600;28;20518;-56
2022/03/21 07:34:13;;;;;;;1.90;1.40;;;;;;;;;;20923428;28;20052;-56
2022/03/21 07:47:17;;;;;;;2.55;1.10;;;;;;;;;;20923258;28;20048;-58
2022/03/21 07:54:37;;;;;;;3.85;1.83;;;10.70;76.20;;;;;;20921788;28;20057;-57
2022/03/21 08:04:39;;;;;;;3.25;1.63;;;10.60;77.80;;;;;;20920434;28;20076;-56
2022/03/21 08:14:40;;;;;;;4.50;2.25;;;10.50;78.40;;;;;;20919913;28;20103;-56
2022/03/21 08:24:42;;;;;;;3.97;2.00;;;10.40;78.10;;;;;;20919241;28;20053;-56
2022/03/21 08:34:45;;;;;;;1.80;1.10;;;10.40;78.10;;;;;;20918642;28;20059;-58
2022/03/21 08:44:46;;;;;;;2.85;0.98;;;10.30;78.40;;;;;;20917909;28;20147;-56
2022/03/21 08:54:48;;;;;;;2.97;1.70;;;10.20;78.30;;;;;;20917390;28;20057;-55
2022/03/21 09:04:50;;;;;;;5.22;2.63;;;10.30;79.00;;;;;;20918108;28;20120;-57
2022/03/21 09:14:51;;;;;;;5.20;2.15;;;10.30;80.30;;;;;;20915862;28;20075;-57
2022/03/21 09:24:54;;;;;;;3.33;2.33;;;10.30;81.00;;;;;;20914566;28;20053;-57
2022/03/21 09:34:56;;;;;;;5.50;3.00;;;10.40;81.00;;;;;;20914012;28;20091;-56
2022/03/21 09:44:58;;;;;;;5.10;4.10;;;;;;;;;;20913441;28;20076;-58
2022/03/21 09:55:01;;;;;;;9.88;8.43;;;;;;;;;;20911783;28;20517;-54
2022/03/21 10:05:03;;;;;;;7.35;5.43;;;;;;;;;;20912100;28;20124;-60
2022/03/21 10:15:06;;;;;;;7.65;5.18;;;;;;;;;;20912411;28;20140;-59
2022/03/21 10:25:10;;;;;;;8.90;5.35;;;;;;;;;;20911144;28;20405;-58
2022/03/21 10:35:14;;;;;;;6.82;4.55;;;;;;;;;;20920810;28;20053;-59
2022/03/21 10:45:16;;;;;;;7.95;4.35;;;;;;;;;;20928438;28;20056;-55
2022/03/21 10:55:21;;;;;;;10.15;4.00;;;;;;;;;;20926178;28;20095;-58
2022/03/21 11:05:24;;;;;;;8.10;4.68;;;;;;;;;;20924803;28;20049;-56
2022/03/21 11:15:26;;;;;;;4.85;2.95;;;;;;;;;;20924956;28;20053;-58
2022/03/21 11:25:30;;;;;;;5.88;3.15;;;;;;;;;;20923999;28;20057;-55
2022/03/21 11:35:34;;;;;;;5.53;2.70;;;;;;;;;;20923706;28;20056;-54
2022/03/21 11:45:39;;;;;;;8.47;2.90;;;;;;;;;;20921984;28;20123;-54
2022/03/21 11:55:42;;;;;;;5.28;2.40;;;;;;;;;;20918606;28;20063;-57
2022/03/21 12:05:50;;;;;;;7.15;3.38;;;;;;;;;;20930792;28;20159;-55
2022/03/21 12:15:52;;;;;;;6.32;2.88;;;;;;;;;;20917939;28;20079;-57
2022/03/21 12:25:55;;;;;;;6.78;2.38;;;;;;;;;;20917160;28;20075;-56
2022/03/21 12:35:58;;;;;;;5.93;2.25;;;;;;;;;;20916616;28;20041;-58
2022/03/21 12:46:09;;;;;;;6.90;2.25;;;;;;;;;;20915976;28;20051;-58
2022/03/21 12:56:15;;;;;;;4.03;2.08;;;;;;;;;;20915403;28;20060;-58
2022/03/21 13:16:45;;;;;;;6.88;1.33;;;;;;;;;;20916637;28;20410;-58
2022/03/21 13:26:47;;;;;;;4.45;2.10;;;;;;;;;;20915870;28;20053;-62
2022/03/21 13:36:49;;;;;;;6.00;1.48;;;;;;;;;;20913378;28;20049;-60
2022/03/21 13:47:08;;;;;;;12.50;1.90;;;;;;;;;;20914336;28;20048;-56
2022/03/21 13:57:10;;;;;;;8.27;2.97;;;;;;;;;;20912472;28;20071;-59
2022/03/21 14:07:12;;;;;;;6.18;1.90;;;;;;;;;;20912824;28;20080;-57
2022/03/21 14:17:14;;;;;;;5.45;2.35;;;;;;;;;;20911372;28;20044;-61
2022/03/21 14:27:16;;;;;;;7.03;2.20;;;;;;;;;;20911154;28;20068;-57
2022/03/21 14:37:17;;;;;;;4.95;2.50;;;;;;;;;;20910127;28;20049;-56
2022/03/21 14:47:22;;;;;;;7.63;2.22;;;;;;;;;;20912009;28;20045;-56
2022/03/21 14:57:24;;;;;;;9.43;2.10;;;;;;;;;;20911631;28;20081;-58
2022/03/21 15:07:26;;;;;;;9.95;2.58;;;;;;;;;;20909996;28;20052;-60
2022/03/21 15:17:28;;;;;;;7.75;2.00;;;;;;;;;;20910007;28;20048;-61
2022/03/21 15:27:31;;;;;;;8.13;1.75;;;;;;;;;;20925747;28;20444;-61
2022/03/21 15:47:54;;;;;;;2.53;1.33;;;;;;;;;;20922473;28;20069;-60
2022/03/21 15:57:56;;;;;;;3.72;1.20;;;;;;;;;;20921533;28;20053;-59
2022/03/21 16:07:58;;;;;;;3.15;1.13;;;;;;;;;;20921520;28;20110;-60
2022/03/21 16:18:01;;;;;;;9.80;2.72;;;;;;;;;;20923331;28;20052;-59
2022/03/21 16:28:04;;;;;;;11.07;2.95;;;;;;;;;;20944847;28;20197;-58
2022/03/21 16:38:06;;;;;;;3.33;1.10;;;;;;;;;;20955915;28;20167;-55
2022/03/21 16:48:08;;;;;;;2.95;1.15;;;;;;;;;;20936012;28;20052;-58
2022/03/21 16:58:10;;;;;;;6.13;1.40;;;;;;;;;;20916139;28;20504;-59
2022/03/21 17:08:14;;;;;;;4.22;1.60;;;;;;;;;;20915292;28;20064;-61
2022/03/21 17:28:34;;;;;;;4.07;2.20;;;;;;;;;;20909326;28;20092;-68
2022/03/21 17:38:37;;;;;;;6.47;2.20;;;;;;;;;;20912623;28;20085;-61
2022/03/21 17:48:41;;;;;;;6.03;2.35;;;;;;;;;;20910381;28;20044;-61
2022/03/21 17:58:43;;;;;;;5.43;2.17;;;;;;;;;;20912432;28;20049;-63
2022/03/21 18:08:48;;;;;;;5.38;2.10;;;;;;;;;;20912869;28;20045;-60
2022/03/21 18:18:51;;;;;;;4.35;1.90;;;;;;;;;;20911498;28;20057;-62
2022/03/21 18:28:53;;;;;;;5.03;2.50;;;;;;;;;;20912730;28;20052;-59
2022/03/21 18:38:55;;;;;;;5.32;2.42;;;;;;;;;;20910905;28;20497;-60
2022/03/21 18:48:58;;;;;;;4.63;2.38;;;;;;;;;;20910847;28;20140;-60
2022/03/21 18:59:00;;;;;;;4.22;1.98;;;;;;;;;;20922477;28;20386;-59
2022/03/21 19:09:01;;;;;;;6.38;3.30;;;;;;;;;;20928454;28;20073;-62
2022/03/21 19:19:03;;;;;;;6.35;3.13;;;;;;;;;;20927543;28;20053;-63
2022/03/21 19:29:06;;;;;;;5.82;2.55;;;;;;;;;;20924878;28;20080;-67
2022/03/21 19:39:08;;;;;;;8.02;4.63;;;;;;;;;;20923693;28;20080;-65
2022/03/21 19:49:11;;;;;;;5.05;2.90;;;;;;;;;;20923748;28;20506;-66
2022/03/21 19:59:14;;;;;;;3.60;2.38;;;;;;;;;;20921963;28;20049;-60
2022/03/21 20:09:16;;;;;;;5.15;1.60;;;;;;;;;;20920808;28;20056;-64
2022/03/21 20:19:19;;;;;;;5.63;2.63;;;;;;;;;;20920626;28;20512;-61
2022/03/21 20:29:20;;;;;;;4.60;2.10;;;;;;;;;;20920143;28;20051;-60
2022/03/21 20:39:23;;;;;;;5.07;1.90;;;;;;;;;;20918887;28;20477;-63
2022/03/21 20:49:25;;;;;;;3.08;2.00;;;;;;;;;;20917969;28;20049;-61
2022/03/21 20:59:27;;;;;;;5.35;1.77;;;;;;;;;;20917766;28;20049;-62
2022/03/21 21:09:29;;;;;;;5.85;2.92;;;;;;;;;;20917662;28;20052;-61
2022/03/21 21:19:31;;;;;;;3.15;1.50;;;;;;;;;;20913585;28;20049;-64
2022/03/21 21:29:33;;;;;;;3.08;1.80;;;;;;;;;;20930191;28;20053;-61
2022/03/21 21:39:35;;;;;;;3.05;1.27;;;;;;;;;;20914336;28;20179;-60
2022/03/21 21:49:37;;;;;;;2.72;1.20;;;;;;;;;;20913763;28;20080;-63
2022/03/21 21:59:39;;;;;;;2.45;1.00;;;;;;;;;;20913051;28;20048;-64
2022/03/21 22:09:42;;;;;;;1.40;0.70;;;;;;;;;;20912313;28;20045;-60
2022/03/21 22:19:45;;;;;;;1.00;0.50;;;;;;;;;;20912645;28;20048;-59
2022/03/21 22:29:47;;;;;;;0.82;0.50;;;;;;;;;;20920234;28;20123;-60
2022/03/21 22:50:09;;;;;;;1.98;0.70;;;;;;;;;;20928783;28;20458;-64
2022/03/21 23:00:31;;;;;;;2.90;1.15;;;;;;;;;;20927336;28;20049;-66
2022/03/21 23:10:34;;;;;;;2.63;0.90;;;;;;;;;;20927291;28;20115;-65
2022/03/21 23:20:36;;;;;;;1.45;0.70;;;;;;;;;;20925474;28;20053;-66
2022/03/21 23:30:43;;;;;;;1.33;0.77;;;;;;;;;;20924856;28;20049;-65
2022/03/21 23:51:06;;;;;;;2.08;0.50;;;;;;;;;;20923755;28;20126;-65
